sensor_id;sensor_type;location;lat;lon;timestamp;P1;durP1;ratioP1;P2;durP2;ratioP2
21152;SDS011;10734;44.792;20.482;2024-02-16T00:01:47;97.35;;;43.92;;
21152;SDS011;10734;44.792;20.482;2024-02-16T00:04:14;91.47;;;42.08;;
21152;SDS011;10734;44.792;20.482;2024-02-16T00:06:41;88.85;;;41.28;;
21152;SDS011;10734;44.792;20.482;2024-02-16T00:09:07;89.28;;;42.35;;
21152;SDS011;10734;44.792;20.482;2024-02-16T00:11:36;98.13;;;41.70;;
21152;SDS011;10734;44.792;20.482;2024-02-16T00:14:03;100.45;;;42.05;;
21152;SDS011;10734;44.792;20.482;2024-02-16T00:16:30;98.00;;;42.22;;
21152;SDS011;10734;44.792;20.482;2024-02-16T00:18:56;98.80;;;45.38;;
21152;SDS011;10734;44.792;20.482;2024-02-16T00:21:23;106.28;;;44.38;;
21152;SDS011;10734;44.792;20.482;2024-02-16T00:23:51;120.18;;;47.40;;
21152;SDS011;10734;44.792;20.482;2024-02-16T00:26:17;98.07;;;44.05;;
21152;SDS011;10734;44.792;20.482;2024-02-16T00:28:44;104.78;;;42.53;;
21152;SDS011;10734;44.792;20.482;2024-02-16T00:31:10;94.10;;;42.22;;
21152;SDS011;10734;44.792;20.482;2024-02-16T00:33:37;91.80;;;40.95;;
21152;SDS011;10734;44.792;20.482;2024-02-16T00:36:04;97.57;;;41.40;;
21152;SDS011;10734;44.792;20.482;2024-02-16T00:38:31;88.80;;;41.42;;
21152;SDS011;10734;44.792;20.482;2024-02-16T00:40:57;88.43;;;39.17;;
21152;SDS011;10734;44.792;20.482;2024-02-16T00:43:24;85.47;;;39.40;;
21152;SDS011;10734;44.792;20.482;2024-02-16T00:45:51;92.10;;;40.42;;
21152;SDS011;10734;44.792;20.482;2024-02-16T00:48:18;86.53;;;38.50;;
21152;SDS011;10734;44.792;20.482;2024-02-16T00:50:44;92.75;;;40.63;;
21152;SDS011;10734;44.792;20.482;2024-02-16T00:53:11;88.35;;;39.72;;
21152;SDS011;10734;44.792;20.482;2024-02-16T00:55:38;77.45;;;36.03;;
21152;SDS011;10734;44.792;20.482;2024-02-16T00:58:08;107.18;;;43.80;;
21152;SDS011;10734;44.792;20.482;2024-02-16T01:00:34;92.50;;;41.28;;
21152;SDS011;10734;44.792;20.482;2024-02-16T01:03:02;93.20;;;38.40;;
21152;SDS011;10734;44.792;20.482;2024-02-16T01:05:29;89.80;;;39.22;;
21152;SDS011;10734;44.792;20.482;2024-02-16T01:07:56;100.10;;;42.83;;
21152;SDS011;10734;44.792;20.482;2024-02-16T01:10:22;90.30;;;39.13;;
21152;SDS011;10734;44.792;20.482;2024-02-16T01:12:49;101.38;;;42.20;;
21152;SDS011;10734;44.792;20.482;2024-02-16T01:15:18;87.30;;;38.65;;
21152;SDS011;10734;44.792;20.482;2024-02-16T01:17:44;89.88;;;38.45;;
21152;SDS011;10734;44.792;20.482;2024-02-16T01:20:11;89.82;;;39.15;;
21152;SDS011;10734;44.792;20.482;2024-02-16T01:22:40;85.63;;;36.88;;
21152;SDS011;10734;44.792;20.482;2024-02-16T01:25:07;88.43;;;36.92;;
21152;SDS011;10734;44.792;20.482;2024-02-16T01:27:35;76.97;;;36.03;;
21152;SDS011;10734;44.792;20.482;2024-02-16T01:30:02;81.38;;;35.85;;
21152;SDS011;10734;44.792;20.482;2024-02-16T01:32:29;85.43;;;37.35;;
21152;SDS011;10734;44.792;20.482;2024-02-16T01:34:56;74.32;;;32.38;;
21152;SDS011;10734;44.792;20.482;2024-02-16T01:37:24;71.15;;;31.90;;
21152;SDS011;10734;44.792;20.482;2024-02-16T01:39:51;88.78;;;37.75;;
21152;SDS011;10734;44.792;20.482;2024-02-16T01:42:18;97.93;;;38.90;;
21152;SDS011;10734;44.792;20.482;2024-02-16T01:44:45;80.60;;;35.70;;
21152;SDS011;10734;44.792;20.482;2024-02-16T01:47:12;84.22;;;36.35;;
21152;SDS011;10734;44.792;20.482;2024-02-16T01:49:38;85.32;;;35.88;;
21152;SDS011;10734;44.792;20.482;2024-02-16T01:52:05;89.55;;;37.15;;
21152;SDS011;10734;44.792;20.482;2024-02-16T01:54:32;84.70;;;37.65;;
21152;SDS011;10734;44.792;20.482;2024-02-16T01:56:59;78.70;;;34.03;;
21152;SDS011;10734;44.792;20.482;2024-02-16T01:59:27;85.53;;;37.63;;
21152;SDS011;10734;44.792;20.482;2024-02-16T02:01:54;89.97;;;38.20;;
21152;SDS011;10734;44.792;20.482;2024-02-16T02:04:21;92.35;;;39.88;;
21152;SDS011;10734;44.792;20.482;2024-02-16T02:06:47;97.55;;;39.05;;
21152;SDS011;10734;44.792;20.482;2024-02-16T02:09:14;84.85;;;38.10;;
21152;SDS011;10734;44.792;20.482;2024-02-16T02:11:41;76.15;;;33.80;;
21152;SDS011;10734;44.792;20.482;2024-02-16T02:14:07;71.25;;;33.90;;
21152;SDS011;10734;44.792;20.482;2024-02-16T02:16:34;69.72;;;32.13;;
21152;SDS011;10734;44.792;20.482;2024-02-16T02:19:16;74.07;;;33.65;;
21152;SDS011;10734;44.792;20.482;2024-02-16T02:21:43;65.88;;;29.65;;
21152;SDS011;10734;44.792;20.482;2024-02-16T02:24:09;67.13;;;30.17;;
21152;SDS011;10734;44.792;20.482;2024-02-16T02:26:37;67.22;;;29.85;;
21152;SDS011;10734;44.792;20.482;2024-02-16T02:29:04;59.67;;;26.92;;
21152;SDS011;10734;44.792;20.482;2024-02-16T02:31:31;53.92;;;25.25;;
21152;SDS011;10734;44.792;20.482;2024-02-16T02:33:57;59.53;;;26.45;;
21152;SDS011;10734;44.792;20.482;2024-02-16T02:36:24;59.70;;;26.20;;
21152;SDS011;10734;44.792;20.482;2024-02-16T02:38:51;58.20;;;25.80;;
21152;SDS011;10734;44.792;20.482;2024-02-16T02:41:18;60.55;;;27.42;;
21152;SDS011;10734;44.792;20.482;2024-02-16T02:43:46;63.78;;;26.20;;
21152;SDS011;10734;44.792;20.482;2024-02-16T02:46:16;62.05;;;28.23;;
21152;SDS011;10734;44.792;20.482;2024-02-16T02:48:43;63.22;;;27.45;;
21152;SDS011;10734;44.792;20.482;2024-02-16T02:51:15;53.90;;;26.73;;
21152;SDS011;10734;44.792;20.482;2024-02-16T02:53:42;71.60;;;29.05;;
21152;SDS011;10734;44.792;20.482;2024-02-16T02:56:09;62.22;;;27.25;;
21152;SDS011;10734;44.792;20.482;2024-02-16T02:58:36;62.38;;;28.67;;
21152;SDS011;10734;44.792;20.482;2024-02-16T03:01:05;85.50;;;35.80;;
21152;SDS011;10734;44.792;20.482;2024-02-16T03:03:34;70.95;;;29.35;;
21152;SDS011;10734;44.792;20.482;2024-02-16T03:06:01;80.85;;;33.75;;
21152;SDS011;10734;44.792;20.482;2024-02-16T03:08:27;93.75;;;36.92;;
21152;SDS011;10734;44.792;20.482;2024-02-16T03:10:54;85.65;;;35.58;;
21152;SDS011;10734;44.792;20.482;2024-02-16T03:13:21;78.18;;;33.53;;
21152;SDS011;10734;44.792;20.482;2024-02-16T03:15:47;62.13;;;30.13;;
21152;SDS011;10734;44.792;20.482;2024-02-16T03:18:14;58.13;;;27.63;;
21152;SDS011;10734;44.792;20.482;2024-02-16T03:20:41;57.75;;;27.73;;
21152;SDS011;10734;44.792;20.482;2024-02-16T03:23:12;52.13;;;24.85;;
21152;SDS011;10734;44.792;20.482;2024-02-16T03:25:39;55.80;;;24.52;;
21152;SDS011;10734;44.792;20.482;2024-02-16T03:28:07;54.85;;;25.23;;
21152;SDS011;10734;44.792;20.482;2024-02-16T03:30:34;52.65;;;22.88;;
21152;SDS011;10734;44.792;20.482;2024-02-16T03:33:01;53.80;;;24.33;;
21152;SDS011;10734;44.792;20.482;2024-02-16T03:35:28;47.63;;;21.85;;
21152;SDS011;10734;44.792;20.482;2024-02-16T03:37:55;43.75;;;21.90;;
21152;SDS011;10734;44.792;20.482;2024-02-16T03:40:22;55.45;;;24.25;;
21152;SDS011;10734;44.792;20.482;2024-02-16T03:42:49;49.60;;;21.98;;
21152;SDS011;10734;44.792;20.482;2024-02-16T03:45:15;57.58;;;22.55;;
21152;SDS011;10734;44.792;20.482;2024-02-16T03:47:43;46.58;;;22.75;;
21152;SDS011;10734;44.792;20.482;2024-02-16T03:50:10;40.40;;;19.77;;
21152;SDS011;10734;44.792;20.482;2024-02-16T03:52:37;49.03;;;21.63;;
21152;SDS011;10734;44.792;20.482;2024-02-16T03:55:04;50.88;;;22.45;;
21152;SDS011;10734;44.792;20.482;2024-02-16T03:57:32;45.35;;;20.85;;
21152;SDS011;10734;44.792;20.482;2024-02-16T03:59:58;47.60;;;22.20;;
21152;SDS011;10734;44.792;20.482;2024-02-16T04:02:25;52.38;;;23.75;;
21152;SDS011;10734;44.792;20.482;2024-02-16T04:04:52;57.40;;;23.63;;
21152;SDS011;10734;44.792;20.482;2024-02-16T04:07:18;55.55;;;24.08;;
21152;SDS011;10734;44.792;20.482;2024-02-16T04:09:45;53.83;;;22.77;;
21152;SDS011;10734;44.792;20.482;2024-02-16T04:12:12;50.53;;;22.45;;
21152;SDS011;10734;44.792;20.482;2024-02-16T04:14:39;52.60;;;22.75;;
21152;SDS011;10734;44.792;20.482;2024-02-16T04:17:05;53.50;;;21.25;;
21152;SDS011;10734;44.792;20.482;2024-02-16T04:19:32;43.58;;;19.38;;
21152;SDS011;10734;44.792;20.482;2024-02-16T04:21:59;42.72;;;19.60;;
21152;SDS011;10734;44.792;20.482;2024-02-16T04:24:26;38.92;;;18.67;;
21152;SDS011;10734;44.792;20.482;2024-02-16T04:26:53;39.35;;;18.15;;
21152;SDS011;10734;44.792;20.482;2024-02-16T04:29:19;37.95;;;18.08;;
21152;SDS011;10734;44.792;20.482;2024-02-16T04:31:46;39.10;;;18.15;;
21152;SDS011;10734;44.792;20.482;2024-02-16T04:34:13;42.08;;;21.00;;
21152;SDS011;10734;44.792;20.482;2024-02-16T04:36:40;32.50;;;16.75;;
21152;SDS011;10734;44.792;20.482;2024-02-16T04:39:07;35.28;;;17.25;;
21152;SDS011;10734;44.792;20.482;2024-02-16T04:41:36;33.00;;;16.15;;
21152;SDS011;10734;44.792;20.482;2024-02-16T04:44:03;32.30;;;15.55;;
21152;SDS011;10734;44.792;20.482;2024-02-16T04:46:29;33.17;;;15.35;;
21152;SDS011;10734;44.792;20.482;2024-02-16T04:48:56;33.58;;;16.50;;
21152;SDS011;10734;44.792;20.482;2024-02-16T04:51:23;37.67;;;18.02;;
21152;SDS011;10734;44.792;20.482;2024-02-16T04:53:50;43.30;;;19.30;;
21152;SDS011;10734;44.792;20.482;2024-02-16T04:56:16;35.55;;;17.73;;
21152;SDS011;10734;44.792;20.482;2024-02-16T04:58:43;44.80;;;17.42;;
21152;SDS011;10734;44.792;20.482;2024-02-16T05:01:09;46.20;;;20.63;;
21152;SDS011;10734;44.792;20.482;2024-02-16T05:03:36;36.00;;;17.08;;
21152;SDS011;10734;44.792;20.482;2024-02-16T05:06:03;36.13;;;16.80;;
21152;SDS011;10734;44.792;20.482;2024-02-16T05:08:30;31.63;;;16.73;;
21152;SDS011;10734;44.792;20.482;2024-02-16T05:10:57;34.65;;;15.20;;
21152;SDS011;10734;44.792;20.482;2024-02-16T05:13:23;32.03;;;14.95;;
21152;SDS011;10734;44.792;20.482;2024-02-16T05:15:52;34.00;;;15.75;;
21152;SDS011;10734;44.792;20.482;2024-02-16T05:18:21;32.40;;;17.02;;
21152;SDS011;10734;44.792;20.482;2024-02-16T05:20:48;36.05;;;18.23;;
21152;SDS011;10734;44.792;20.482;2024-02-16T05:23:15;33.47;;;16.85;;
21152;SDS011;10734;44.792;20.482;2024-02-16T05:25:42;29.73;;;13.73;;
21152;SDS011;10734;44.792;20.482;2024-02-16T05:28:08;31.90;;;15.38;;
21152;SDS011;10734;44.792;20.482;2024-02-16T05:30:35;33.25;;;15.95;;
21152;SDS011;10734;44.792;20.482;2024-02-16T05:33:02;28.60;;;14.80;;
21152;SDS011;10734;44.792;20.482;2024-02-16T05:35:29;31.50;;;14.43;;
21152;SDS011;10734;44.792;20.482;2024-02-16T05:38:00;28.42;;;14.27;;
21152;SDS011;10734;44.792;20.482;2024-02-16T05:40:33;29.23;;;14.52;;
21152;SDS011;10734;44.792;20.482;2024-02-16T05:43:11;29.00;;;14.32;;
21152;SDS011;10734;44.792;20.482;2024-02-16T05:45:38;26.50;;;13.80;;
21152;SDS011;10734;44.792;20.482;2024-02-16T05:48:08;30.30;;;14.88;;
21152;SDS011;10734;44.792;20.482;2024-02-16T05:50:37;30.95;;;16.10;;
21152;SDS011;10734;44.792;20.482;2024-02-16T05:53:03;33.22;;;16.38;;
21152;SDS011;10734;44.792;20.482;2024-02-16T05:55:30;38.75;;;17.58;;
21152;SDS011;10734;44.792;20.482;2024-02-16T05:57:57;39.55;;;18.30;;
21152;SDS011;10734;44.792;20.482;2024-02-16T06:00:23;60.47;;;23.02;;
21152;SDS011;10734;44.792;20.482;2024-02-16T06:02:50;41.25;;;20.45;;
21152;SDS011;10734;44.792;20.482;2024-02-16T06:05:17;41.13;;;19.20;;
21152;SDS011;10734;44.792;20.482;2024-02-16T06:07:43;142.77;;;70.00;;
21152;SDS011;10734;44.792;20.482;2024-02-16T06:10:10;312.10;;;165.70;;
21152;SDS011;10734;44.792;20.482;2024-02-16T06:12:38;257.90;;;130.77;;
21152;SDS011;10734;44.792;20.482;2024-02-16T06:15:05;197.95;;;101.45;;
21152;SDS011;10734;44.792;20.482;2024-02-16T06:17:31;131.77;;;61.58;;
21152;SDS011;10734;44.792;20.482;2024-02-16T06:19:58;73.03;;;34.97;;
21152;SDS011;10734;44.792;20.482;2024-02-16T06:22:25;96.32;;;45.90;;
21152;SDS011;10734;44.792;20.482;2024-02-16T06:24:51;61.42;;;28.27;;
21152;SDS011;10734;44.792;20.482;2024-02-16T06:27:18;64.88;;;29.63;;
21152;SDS011;10734;44.792;20.482;2024-02-16T06:29:46;48.67;;;21.98;;
21152;SDS011;10734;44.792;20.482;2024-02-16T06:32:12;45.97;;;18.67;;
21152;SDS011;10734;44.792;20.482;2024-02-16T06:34:40;35.67;;;17.30;;
21152;SDS011;10734;44.792;20.482;2024-02-16T06:37:07;29.88;;;16.35;;
21152;SDS011;10734;44.792;20.482;2024-02-16T06:39:34;38.47;;;17.25;;
21152;SDS011;10734;44.792;20.482;2024-02-16T06:42:00;31.80;;;15.85;;
21152;SDS011;10734;44.792;20.482;2024-02-16T06:44:27;33.85;;;14.68;;
21152;SDS011;10734;44.792;20.482;2024-02-16T06:46:54;31.90;;;16.20;;
21152;SDS011;10734;44.792;20.482;2024-02-16T06:49:20;31.55;;;15.75;;
21152;SDS011;10734;44.792;20.482;2024-02-16T06:51:47;33.47;;;15.73;;
21152;SDS011;10734;44.792;20.482;2024-02-16T06:54:14;31.33;;;15.60;;
21152;SDS011;10734;44.792;20.482;2024-02-16T06:56:41;32.75;;;15.70;;
21152;SDS011;10734;44.792;20.482;2024-02-16T06:59:07;33.85;;;16.35;;
21152;SDS011;10734;44.792;20.482;2024-02-16T07:01:35;40.40;;;17.33;;
21152;SDS011;10734;44.792;20.482;2024-02-16T07:04:02;39.95;;;17.85;;
21152;SDS011;10734;44.792;20.482;2024-02-16T07:06:29;36.40;;;16.90;;
21152;SDS011;10734;44.792;20.482;2024-02-16T07:08:56;34.00;;;16.95;;
21152;SDS011;10734;44.792;20.482;2024-02-16T07:11:23;35.45;;;16.50;;
21152;SDS011;10734;44.792;20.482;2024-02-16T07:13:50;40.13;;;17.23;;
21152;SDS011;10734;44.792;20.482;2024-02-16T07:16:16;39.70;;;17.92;;
21152;SDS011;10734;44.792;20.482;2024-02-16T07:18:44;36.60;;;17.88;;
21152;SDS011;10734;44.792;20.482;2024-02-16T07:21:11;36.38;;;16.15;;
21152;SDS011;10734;44.792;20.482;2024-02-16T07:23:38;33.92;;;16.85;;
21152;SDS011;10734;44.792;20.482;2024-02-16T07:26:04;38.08;;;17.77;;
21152;SDS011;10734;44.792;20.482;2024-02-16T07:28:33;37.35;;;18.38;;
21152;SDS011;10734;44.792;20.482;2024-02-16T07:30:59;42.40;;;19.55;;
21152;SDS011;10734;44.792;20.482;2024-02-16T07:33:26;36.28;;;19.63;;
21152;SDS011;10734;44.792;20.482;2024-02-16T07:35:55;37.95;;;18.65;;
21152;SDS011;10734;44.792;20.482;2024-02-16T07:38:22;36.92;;;18.77;;
21152;SDS011;10734;44.792;20.482;2024-02-16T07:40:48;38.45;;;18.52;;
21152;SDS011;10734;44.792;20.482;2024-02-16T07:43:17;43.83;;;19.40;;
21152;SDS011;10734;44.792;20.482;2024-02-16T07:45:44;41.70;;;19.42;;
21152;SDS011;10734;44.792;20.482;2024-02-16T07:48:11;36.83;;;18.65;;
21152;SDS011;10734;44.792;20.482;2024-02-16T07:50:38;39.53;;;19.80;;
21152;SDS011;10734;44.792;20.482;2024-02-16T07:53:05;39.13;;;19.38;;
21152;SDS011;10734;44.792;20.482;2024-02-16T07:55:31;39.38;;;19.83;;
21152;SDS011;10734;44.792;20.482;2024-02-16T07:57:58;32.85;;;16.88;;
21152;SDS011;10734;44.792;20.482;2024-02-16T08:00:25;37.50;;;19.20;;
21152;SDS011;10734;44.792;20.482;2024-02-16T08:02:51;45.95;;;23.55;;
21152;SDS011;10734;44.792;20.482;2024-02-16T08:05:18;35.08;;;17.77;;
21152;SDS011;10734;44.792;20.482;2024-02-16T08:07:46;36.42;;;19.42;;
21152;SDS011;10734;44.792;20.482;2024-02-16T08:10:13;35.50;;;18.55;;
21152;SDS011;10734;44.792;20.482;2024-02-16T08:12:40;32.85;;;17.60;;
21152;SDS011;10734;44.792;20.482;2024-02-16T08:15:07;34.15;;;16.10;;
21152;SDS011;10734;44.792;20.482;2024-02-16T08:17:34;34.83;;;15.80;;
21152;SDS011;10734;44.792;20.482;2024-02-16T08:20:01;31.45;;;16.38;;
21152;SDS011;10734;44.792;20.482;2024-02-16T08:22:28;29.25;;;14.88;;
21152;SDS011;10734;44.792;20.482;2024-02-16T08:24:55;34.05;;;16.98;;
21152;SDS011;10734;44.792;20.482;2024-02-16T08:27:21;31.70;;;16.70;;
21152;SDS011;10734;44.792;20.482;2024-02-16T08:29:48;27.42;;;16.02;;
21152;SDS011;10734;44.792;20.482;2024-02-16T08:32:15;35.30;;;16.40;;
21152;SDS011;10734;44.792;20.482;2024-02-16T08:34:43;37.55;;;18.10;;
21152;SDS011;10734;44.792;20.482;2024-02-16T08:37:10;35.42;;;18.98;;
21152;SDS011;10734;44.792;20.482;2024-02-16T08:39:37;30.02;;;16.25;;
21152;SDS011;10734;44.792;20.482;2024-02-16T08:42:04;29.95;;;16.88;;
21152;SDS011;10734;44.792;20.482;2024-02-16T08:44:31;29.88;;;16.73;;
21152;SDS011;10734;44.792;20.482;2024-02-16T08:46:58;34.30;;;16.17;;
21152;SDS011;10734;44.792;20.482;2024-02-16T08:49:24;35.97;;;15.63;;
21152;SDS011;10734;44.792;20.482;2024-02-16T08:51:51;35.25;;;16.67;;
21152;SDS011;10734;44.792;20.482;2024-02-16T08:54:18;28.27;;;15.82;;
21152;SDS011;10734;44.792;20.482;2024-02-16T08:56:45;33.05;;;15.98;;
21152;SDS011;10734;44.792;20.482;2024-02-16T08:59:12;26.00;;;14.88;;
21152;SDS011;10734;44.792;20.482;2024-02-16T09:01:39;27.27;;;15.25;;
21152;SDS011;10734;44.792;20.482;2024-02-16T09:04:06;27.98;;;15.15;;
21152;SDS011;10734;44.792;20.482;2024-02-16T09:06:33;23.48;;;14.13;;
21152;SDS011;10734;44.792;20.482;2024-02-16T09:09:01;25.38;;;14.85;;
21152;SDS011;10734;44.792;20.482;2024-02-16T09:11:28;24.40;;;14.68;;
21152;SDS011;10734;44.792;20.482;2024-02-16T09:13:55;24.88;;;14.48;;
21152;SDS011;10734;44.792;20.482;2024-02-16T09:16:22;25.17;;;13.02;;
21152;SDS011;10734;44.792;20.482;2024-02-16T09:18:50;22.98;;;14.02;;
21152;SDS011;10734;44.792;20.482;2024-02-16T09:21:17;23.13;;;13.00;;
21152;SDS011;10734;44.792;20.482;2024-02-16T09:23:44;23.80;;;12.90;;
21152;SDS011;10734;44.792;20.482;2024-02-16T09:26:11;34.08;;;22.00;;
21152;SDS011;10734;44.792;20.482;2024-02-16T09:28:41;23.88;;;14.82;;
21152;SDS011;10734;44.792;20.482;2024-02-16T09:31:08;21.15;;;13.25;;
21152;SDS011;10734;44.792;20.482;2024-02-16T09:33:35;18.25;;;11.52;;
21152;SDS011;10734;44.792;20.482;2024-02-16T09:36:02;22.35;;;12.98;;
21152;SDS011;10734;44.792;20.482;2024-02-16T09:38:31;26.67;;;15.07;;
21152;SDS011;10734;44.792;20.482;2024-02-16T09:40:58;29.15;;;14.77;;
21152;SDS011;10734;44.792;20.482;2024-02-16T09:43:26;23.27;;;12.93;;
21152;SDS011;10734;44.792;20.482;2024-02-16T09:45:57;22.85;;;14.13;;
21152;SDS011;10734;44.792;20.482;2024-02-16T09:48:25;27.93;;;14.53;;
21152;SDS011;10734;44.792;20.482;2024-02-16T09:50:54;26.45;;;14.90;;
21152;SDS011;10734;44.792;20.482;2024-02-16T09:53:23;24.20;;;13.52;;
21152;SDS011;10734;44.792;20.482;2024-02-16T09:55:50;22.65;;;13.82;;
21152;SDS011;10734;44.792;20.482;2024-02-16T09:58:17;25.52;;;15.13;;
21152;SDS011;10734;44.792;20.482;2024-02-16T10:00:52;24.90;;;14.25;;
21152;SDS011;10734;44.792;20.482;2024-02-16T10:03:29;22.77;;;14.68;;
21152;SDS011;10734;44.792;20.482;2024-02-16T10:06:06;29.98;;;15.95;;
21152;SDS011;10734;44.792;20.482;2024-02-16T10:08:34;24.92;;;15.48;;
21152;SDS011;10734;44.792;20.482;2024-02-16T10:11:02;22.92;;;14.50;;
21152;SDS011;10734;44.792;20.482;2024-02-16T10:13:29;22.30;;;14.15;;
21152;SDS011;10734;44.792;20.482;2024-02-16T10:16:06;23.40;;;13.90;;
21152;SDS011;10734;44.792;20.482;2024-02-16T10:18:35;21.40;;;13.63;;
21152;SDS011;10734;44.792;20.482;2024-02-16T10:21:02;20.50;;;13.65;;
21152;SDS011;10734;44.792;20.482;2024-02-16T10:23:29;24.02;;;13.40;;
21152;SDS011;10734;44.792;20.482;2024-02-16T10:26:09;17.95;;;11.73;;
21152;SDS011;10734;44.792;20.482;2024-02-16T10:28:35;19.85;;;12.55;;
21152;SDS011;10734;44.792;20.482;2024-02-16T10:31:02;18.70;;;13.00;;
21152;SDS011;10734;44.792;20.482;2024-02-16T10:33:31;20.38;;;13.32;;
21152;SDS011;10734;44.792;20.482;2024-02-16T10:35:58;21.83;;;13.20;;
21152;SDS011;10734;44.792;20.482;2024-02-16T10:38:26;22.48;;;13.80;;
21152;SDS011;10734;44.792;20.482;2024-02-16T10:40:53;21.40;;;13.75;;
21152;SDS011;10734;44.792;20.482;2024-02-16T10:43:22;24.83;;;14.15;;
21152;SDS011;10734;44.792;20.482;2024-02-16T10:45:49;26.13;;;14.25;;
21152;SDS011;10734;44.792;20.482;2024-02-16T10:48:19;19.30;;;14.43;;
21152;SDS011;10734;44.792;20.482;2024-02-16T10:50:46;22.35;;;15.95;;
21152;SDS011;10734;44.792;20.482;2024-02-16T10:55:40;22.83;;;14.65;;
21152;SDS011;10734;44.792;20.482;2024-02-16T10:58:07;24.58;;;14.68;;
21152;SDS011;10734;44.792;20.482;2024-02-16T11:00:34;24.75;;;17.33;;
21152;SDS011;10734;44.792;20.482;2024-02-16T11:03:01;20.95;;;15.40;;
21152;SDS011;10734;44.792;20.482;2024-02-16T11:05:35;23.88;;;14.95;;
21152;SDS011;10734;44.792;20.482;2024-02-16T11:08:02;26.23;;;18.27;;
21152;SDS011;10734;44.792;20.482;2024-02-16T11:10:29;23.50;;;15.15;;
21152;SDS011;10734;44.792;20.482;2024-02-16T11:13:00;20.35;;;13.80;;
21152;SDS011;10734;44.792;20.482;2024-02-16T11:15:31;17.95;;;13.73;;
21152;SDS011;10734;44.792;20.482;2024-02-16T11:18:01;21.67;;;14.98;;
21152;SDS011;10734;44.792;20.482;2024-02-16T11:20:36;19.55;;;13.35;;
21152;SDS011;10734;44.792;20.482;2024-02-16T11:23:06;17.52;;;9.98;;
21152;SDS011;10734;44.792;20.482;2024-02-16T11:25:34;12.60;;;8.00;;
21152;SDS011;10734;44.792;20.482;2024-02-16T11:28:01;14.43;;;10.95;;
21152;SDS011;10734;44.792;20.482;2024-02-16T11:30:28;16.83;;;10.65;;
21152;SDS011;10734;44.792;20.482;2024-02-16T11:32:54;15.63;;;11.00;;
21152;SDS011;10734;44.792;20.482;2024-02-16T11:35:21;14.95;;;9.77;;
21152;SDS011;10734;44.792;20.482;2024-02-16T11:37:48;17.58;;;12.38;;
21152;SDS011;10734;44.792;20.482;2024-02-16T11:40:15;17.20;;;11.88;;
21152;SDS011;10734;44.792;20.482;2024-02-16T11:42:41;17.08;;;10.73;;
21152;SDS011;10734;44.792;20.482;2024-02-16T11:45:10;15.85;;;10.18;;
21152;SDS011;10734;44.792;20.482;2024-02-16T11:47:38;16.73;;;12.27;;
21152;SDS011;10734;44.792;20.482;2024-02-16T11:50:06;16.83;;;11.18;;
21152;SDS011;10734;44.792;20.482;2024-02-16T11:55:03;23.40;;;13.45;;
21152;SDS011;10734;44.792;20.482;2024-02-16T11:57:31;15.07;;;11.68;;
21152;SDS011;10734;44.792;20.482;2024-02-16T11:59:58;18.15;;;12.13;;
21152;SDS011;10734;44.792;20.482;2024-02-16T12:02:25;15.63;;;11.55;;
21152;SDS011;10734;44.792;20.482;2024-02-16T12:04:58;17.92;;;11.95;;
21152;SDS011;10734;44.792;20.482;2024-02-16T12:07:29;23.73;;;11.38;;
21152;SDS011;10734;44.792;20.482;2024-02-16T12:09:57;19.52;;;12.95;;
21152;SDS011;10734;44.792;20.482;2024-02-16T12:12:24;17.83;;;11.48;;
21152;SDS011;10734;44.792;20.482;2024-02-16T12:14:52;20.30;;;13.77;;
21152;SDS011;10734;44.792;20.482;2024-02-16T12:17:19;21.48;;;12.90;;
21152;SDS011;10734;44.792;20.482;2024-02-16T12:19:46;18.25;;;12.80;;
21152;SDS011;10734;44.792;20.482;2024-02-16T12:22:16;15.30;;;10.07;;
21152;SDS011;10734;44.792;20.482;2024-02-16T12:24:43;19.52;;;11.55;;
21152;SDS011;10734;44.792;20.482;2024-02-16T12:27:10;16.20;;;10.23;;
21152;SDS011;10734;44.792;20.482;2024-02-16T12:29:37;16.08;;;10.70;;
21152;SDS011;10734;44.792;20.482;2024-02-16T12:32:04;15.13;;;10.50;;
21152;SDS011;10734;44.792;20.482;2024-02-16T12:34:31;14.95;;;10.82;;
21152;SDS011;10734;44.792;20.482;2024-02-16T12:36:58;17.80;;;10.73;;
21152;SDS011;10734;44.792;20.482;2024-02-16T12:39:24;14.93;;;10.45;;
21152;SDS011;10734;44.792;20.482;2024-02-16T12:41:51;14.07;;;10.45;;
21152;SDS011;10734;44.792;20.482;2024-02-16T12:44:18;14.32;;;9.68;;
21152;SDS011;10734;44.792;20.482;2024-02-16T12:46:44;13.45;;;9.55;;
21152;SDS011;10734;44.792;20.482;2024-02-16T12:49:11;12.27;;;9.38;;
21152;SDS011;10734;44.792;20.482;2024-02-16T12:51:38;17.42;;;11.35;;
21152;SDS011;10734;44.792;20.482;2024-02-16T12:54:04;16.02;;;11.13;;
21152;SDS011;10734;44.792;20.482;2024-02-16T12:56:31;15.65;;;9.57;;
21152;SDS011;10734;44.792;20.482;2024-02-16T12:58:58;16.65;;;9.82;;
21152;SDS011;10734;44.792;20.482;2024-02-16T13:01:27;19.50;;;11.07;;
21152;SDS011;10734;44.792;20.482;2024-02-16T13:03:53;15.55;;;10.18;;
21152;SDS011;10734;44.792;20.482;2024-02-16T13:06:20;16.90;;;10.57;;
21152;SDS011;10734;44.792;20.482;2024-02-16T13:08:53;13.52;;;10.88;;
21152;SDS011;10734;44.792;20.482;2024-02-16T13:11:20;13.82;;;9.43;;
21152;SDS011;10734;44.792;20.482;2024-02-16T13:13:46;14.82;;;9.10;;
21152;SDS011;10734;44.792;20.482;2024-02-16T13:16:13;14.23;;;8.98;;
21152;SDS011;10734;44.792;20.482;2024-02-16T13:18:40;27.80;;;18.33;;
21152;SDS011;10734;44.792;20.482;2024-02-16T13:21:07;13.25;;;9.45;;
21152;SDS011;10734;44.792;20.482;2024-02-16T13:23:34;19.55;;;13.85;;
21152;SDS011;10734;44.792;20.482;2024-02-16T13:26:00;13.43;;;9.80;;
21152;SDS011;10734;44.792;20.482;2024-02-16T13:28:27;15.68;;;9.68;;
21152;SDS011;10734;44.792;20.482;2024-02-16T13:30:54;11.48;;;8.38;;
21152;SDS011;10734;44.792;20.482;2024-02-16T13:33:21;13.65;;;8.77;;
21152;SDS011;10734;44.792;20.482;2024-02-16T13:35:48;15.43;;;8.52;;
21152;SDS011;10734;44.792;20.482;2024-02-16T13:38:14;19.88;;;8.85;;
21152;SDS011;10734;44.792;20.482;2024-02-16T13:40:41;15.50;;;7.78;;
21152;SDS011;10734;44.792;20.482;2024-02-16T13:43:09;13.95;;;8.30;;
21152;SDS011;10734;44.792;20.482;2024-02-16T13:45:56;10.20;;;7.25;;
21152;SDS011;10734;44.792;20.482;2024-02-16T13:48:24;10.85;;;7.97;;
21152;SDS011;10734;44.792;20.482;2024-02-16T13:50:53;12.23;;;8.00;;
21152;SDS011;10734;44.792;20.482;2024-02-16T13:53:21;14.70;;;8.45;;
21152;SDS011;10734;44.792;20.482;2024-02-16T13:55:49;10.10;;;7.97;;
21152;SDS011;10734;44.792;20.482;2024-02-16T13:58:16;16.35;;;9.30;;
21152;SDS011;10734;44.792;20.482;2024-02-16T14:00:42;13.55;;;9.00;;
21152;SDS011;10734;44.792;20.482;2024-02-16T14:03:11;13.00;;;8.95;;
21152;SDS011;10734;44.792;20.482;2024-02-16T14:05:38;12.23;;;9.10;;
21152;SDS011;10734;44.792;20.482;2024-02-16T14:08:06;11.80;;;8.80;;
21152;SDS011;10734;44.792;20.482;2024-02-16T14:10:35;12.10;;;7.82;;
21152;SDS011;10734;44.792;20.482;2024-02-16T14:13:02;17.30;;;10.10;;
21152;SDS011;10734;44.792;20.482;2024-02-16T14:15:29;16.27;;;10.93;;